sensor_id;sensor_type;location;lat;lon;timestamp;P1;durP1;ratioP1;P2;durP2;ratioP2
12511;SDS011;6321;53.798;10.382;2023-03-14T00:00:09;9.07;;;3.33;;
12511;SDS011;6321;53.798;10.382;2023-03-14T00:02:36;11.17;;;3.73;;
12511;SDS011;6321;53.798;10.382;2023-03-14T00:05:02;8.03;;;3.17;;
12511;SDS011;6321;53.798;10.382;2023-03-14T00:07:32;12.00;;;3.70;;
12511;SDS011;6321;53.798;10.382;2023-03-14T00:10:00;5.83;;;3.33;;
12511;SDS011;6321;53.798;10.382;2023-03-14T00:12:26;13.90;;;3.60;;
12511;SDS011;6321;53.798;10.382;2023-03-14T00:14:52;7.27;;;2.90;;
12511;SDS011;6321;53.798;10.382;2023-03-14T00:17:18;9.70;;;3.70;;
12511;SDS011;6321;53.798;10.382;2023-03-14T00:19:44;6.30;;;2.73;;
12511;SDS011;6321;53.798;10.382;2023-03-14T00:22:10;7.67;;;3.37;;
12511;SDS011;6321;53.798;10.382;2023-03-14T00:24:36;9.17;;;3.57;;
12511;SDS011;6321;53.798;10.382;2023-03-14T00:27:02;9.17;;;3.20;;
12511;SDS011;6321;53.798;10.382;2023-03-14T00:29:28;10.33;;;3.10;;
12511;SDS011;6321;53.798;10.382;2023-03-14T00:31:53;10.27;;;3.40;;
12511;SDS011;6321;53.798;10.382;2023-03-14T00:34:19;7.83;;;3.20;;
12511;SDS011;6321;53.798;10.382;2023-03-14T00:36:45;15.17;;;3.60;;
12511;SDS011;6321;53.798;10.382;2023-03-14T00:39:11;12.87;;;3.37;;
12511;SDS011;6321;53.798;10.382;2023-03-14T00:41:37;15.03;;;3.80;;
12511;SDS011;6321;53.798;10.382;2023-03-14T00:44:03;5.80;;;3.33;;
12511;SDS011;6321;53.798;10.382;2023-03-14T00:46:29;6.77;;;3.40;;
12511;SDS011;6321;53.798;10.382;2023-03-14T00:48:55;8.97;;;3.40;;
12511;SDS011;6321;53.798;10.382;2023-03-14T00:51:21;7.57;;;3.67;;
12511;SDS011;6321;53.798;10.382;2023-03-14T00:53:47;5.73;;;3.50;;
12511;SDS011;6321;53.798;10.382;2023-03-14T00:56:13;11.83;;;3.83;;
12511;SDS011;6321;53.798;10.382;2023-03-14T00:58:39;9.83;;;3.53;;
12511;SDS011;6321;53.798;10.382;2023-03-14T01:01:06;5.77;;;3.07;;
12511;SDS011;6321;53.798;10.382;2023-03-14T01:03:32;6.57;;;3.03;;
12511;SDS011;6321;53.798;10.382;2023-03-14T01:08:53;13.23;;;3.70;;
12511;SDS011;6321;53.798;10.382;2023-03-14T01:11:23;10.17;;;4.13;;
12511;SDS011;6321;53.798;10.382;2023-03-14T01:13:50;8.37;;;3.13;;
12511;SDS011;6321;53.798;10.382;2023-03-14T01:16:16;8.23;;;3.03;;
12511;SDS011;6321;53.798;10.382;2023-03-14T01:18:42;10.30;;;3.67;;
12511;SDS011;6321;53.798;10.382;2023-03-14T01:21:09;10.17;;;3.40;;
12511;SDS011;6321;53.798;10.382;2023-03-14T01:23:36;13.00;;;3.57;;
12511;SDS011;6321;53.798;10.382;2023-03-14T01:26:01;10.90;;;4.40;;
12511;SDS011;6321;53.798;10.382;2023-03-14T01:28:27;7.40;;;3.20;;
12511;SDS011;6321;53.798;10.382;2023-03-14T01:30:53;8.47;;;3.03;;
12511;SDS011;6321;53.798;10.382;2023-03-14T01:33:19;9.80;;;3.37;;
12511;SDS011;6321;53.798;10.382;2023-03-14T01:35:45;5.83;;;2.90;;
12511;SDS011;6321;53.798;10.382;2023-03-14T01:38:11;7.13;;;3.23;;
12511;SDS011;6321;53.798;10.382;2023-03-14T01:40:44;10.50;;;3.20;;
12511;SDS011;6321;53.798;10.382;2023-03-14T01:43:17;7.90;;;3.07;;
12511;SDS011;6321;53.798;10.382;2023-03-14T01:48:28;7.53;;;3.17;;
12511;SDS011;6321;53.798;10.382;2023-03-14T01:50:56;12.23;;;3.40;;
12511;SDS011;6321;53.798;10.382;2023-03-14T01:53:23;10.67;;;3.90;;
12511;SDS011;6321;53.798;10.382;2023-03-14T01:55:49;12.30;;;3.10;;
12511;SDS011;6321;53.798;10.382;2023-03-14T01:58:15;10.80;;;3.30;;
12511;SDS011;6321;53.798;10.382;2023-03-14T02:00:42;11.60;;;3.23;;
12511;SDS011;6321;53.798;10.382;2023-03-14T02:03:14;14.47;;;3.43;;
12511;SDS011;6321;53.798;10.382;2023-03-14T02:05:41;12.17;;;3.50;;
12511;SDS011;6321;53.798;10.382;2023-03-14T02:08:11;14.13;;;3.97;;
12511;SDS011;6321;53.798;10.382;2023-03-14T02:10:38;10.57;;;3.73;;
12511;SDS011;6321;53.798;10.382;2023-03-14T02:13:05;9.53;;;3.43;;
12511;SDS011;6321;53.798;10.382;2023-03-14T02:15:31;5.90;;;3.10;;
12511;SDS011;6321;53.798;10.382;2023-03-14T02:17:58;7.50;;;3.20;;
12511;SDS011;6321;53.798;10.382;2023-03-14T02:20:44;7.07;;;3.23;;
12511;SDS011;6321;53.798;10.382;2023-03-14T02:23:12;9.50;;;3.33;;
12511;SDS011;6321;53.798;10.382;2023-03-14T02:28:08;7.17;;;3.03;;
12511;SDS011;6321;53.798;10.382;2023-03-14T02:30:34;7.97;;;3.43;;
12511;SDS011;6321;53.798;10.382;2023-03-14T02:33:01;9.97;;;3.53;;
12511;SDS011;6321;53.798;10.382;2023-03-14T02:35:29;7.10;;;3.67;;
12511;SDS011;6321;53.798;10.382;2023-03-14T02:40:23;8.30;;;4.03;;
12511;SDS011;6321;53.798;10.382;2023-03-14T02:42:49;6.40;;;3.50;;
12511;SDS011;6321;53.798;10.382;2023-03-14T02:48:00;6.00;;;3.37;;
12511;SDS011;6321;53.798;10.382;2023-03-14T02:50:29;6.13;;;3.53;;
12511;SDS011;6321;53.798;10.382;2023-03-14T02:52:58;7.13;;;3.50;;
12511;SDS011;6321;53.798;10.382;2023-03-14T02:55:24;13.73;;;3.97;;
12511;SDS011;6321;53.798;10.382;2023-03-14T02:57:51;8.07;;;3.57;;
12511;SDS011;6321;53.798;10.382;2023-03-14T03:00:18;6.40;;;3.70;;
12511;SDS011;6321;53.798;10.382;2023-03-14T03:02:44;6.17;;;3.63;;
12511;SDS011;6321;53.798;10.382;2023-03-14T03:05:09;7.07;;;4.30;;
12511;SDS011;6321;53.798;10.382;2023-03-14T03:07:35;6.53;;;3.80;;
12511;SDS011;6321;53.798;10.382;2023-03-14T03:10:01;8.33;;;3.67;;
12511;SDS011;6321;53.798;10.382;2023-03-14T03:12:27;8.03;;;3.03;;
12511;SDS011;6321;53.798;10.382;2023-03-14T03:14:53;9.87;;;3.50;;
12511;SDS011;6321;53.798;10.382;2023-03-14T03:17:19;8.90;;;4.30;;
12511;SDS011;6321;53.798;10.382;2023-03-14T03:19:45;7.80;;;3.67;;
12511;SDS011;6321;53.798;10.382;2023-03-14T03:22:11;8.13;;;3.60;;
12511;SDS011;6321;53.798;10.382;2023-03-14T03:24:37;6.47;;;3.33;;
12511;SDS011;6321;53.798;10.382;2023-03-14T03:27:03;7.53;;;3.73;;
12511;SDS011;6321;53.798;10.382;2023-03-14T03:29:29;8.70;;;4.07;;
12511;SDS011;6321;53.798;10.382;2023-03-14T03:31:55;7.23;;;3.70;;
12511;SDS011;6321;53.798;10.382;2023-03-14T03:34:21;8.50;;;4.17;;
12511;SDS011;6321;53.798;10.382;2023-03-14T03:36:47;10.53;;;4.47;;
12511;SDS011;6321;53.798;10.382;2023-03-14T03:39:13;7.37;;;3.43;;
12511;SDS011;6321;53.798;10.382;2023-03-14T03:41:39;9.73;;;4.23;;
12511;SDS011;6321;53.798;10.382;2023-03-14T03:44:05;5.77;;;3.80;;
12511;SDS011;6321;53.798;10.382;2023-03-14T03:46:31;11.37;;;4.57;;
12511;SDS011;6321;53.798;10.382;2023-03-14T03:48:58;10.00;;;4.10;;
12511;SDS011;6321;53.798;10.382;2023-03-14T03:51:24;8.77;;;3.40;;
12511;SDS011;6321;53.798;10.382;2023-03-14T03:53:50;6.33;;;3.47;;
12511;SDS011;6321;53.798;10.382;2023-03-14T03:56:16;8.73;;;5.30;;
12511;SDS011;6321;53.798;10.382;2023-03-14T03:58:43;11.20;;;3.90;;
12511;SDS011;6321;53.798;10.382;2023-03-14T04:01:09;8.63;;;3.97;;
12511;SDS011;6321;53.798;10.382;2023-03-14T04:03:35;10.40;;;4.43;;
12511;SDS011;6321;53.798;10.382;2023-03-14T04:06:04;7.83;;;4.17;;
12511;SDS011;6321;53.798;10.382;2023-03-14T04:08:31;8.57;;;3.90;;
12511;SDS011;6321;53.798;10.382;2023-03-14T04:10:57;8.40;;;4.00;;
12511;SDS011;6321;53.798;10.382;2023-03-14T04:13:24;7.17;;;3.73;;
12511;SDS011;6321;53.798;10.382;2023-03-14T04:15:50;8.83;;;4.20;;
12511;SDS011;6321;53.798;10.382;2023-03-14T04:18:16;7.43;;;4.53;;
12511;SDS011;6321;53.798;10.382;2023-03-14T04:20:42;7.17;;;3.97;;
12511;SDS011;6321;53.798;10.382;2023-03-14T04:23:08;10.50;;;4.57;;
12511;SDS011;6321;53.798;10.382;2023-03-14T04:25:34;7.30;;;3.80;;
12511;SDS011;6321;53.798;10.382;2023-03-14T04:28:00;8.87;;;4.07;;
12511;SDS011;6321;53.798;10.382;2023-03-14T04:30:26;8.07;;;3.60;;
12511;SDS011;6321;53.798;10.382;2023-03-14T04:32:52;7.93;;;3.93;;
12511;SDS011;6321;53.798;10.382;2023-03-14T04:35:18;6.07;;;4.10;;
12511;SDS011;6321;53.798;10.382;2023-03-14T04:37:44;7.00;;;4.13;;
12511;SDS011;6321;53.798;10.382;2023-03-14T04:40:13;8.47;;;3.53;;
12511;SDS011;6321;53.798;10.382;2023-03-14T04:42:40;8.73;;;4.03;;
12511;SDS011;6321;53.798;10.382;2023-03-14T04:45:06;5.07;;;3.37;;
12511;SDS011;6321;53.798;10.382;2023-03-14T04:47:32;5.97;;;3.60;;
12511;SDS011;6321;53.798;10.382;2023-03-14T04:49:58;10.27;;;4.20;;
12511;SDS011;6321;53.798;10.382;2023-03-14T04:52:24;7.93;;;4.27;;
12511;SDS011;6321;53.798;10.382;2023-03-14T04:54:50;8.80;;;4.30;;
12511;SDS011;6321;53.798;10.382;2023-03-14T04:57:16;8.10;;;3.83;;
12511;SDS011;6321;53.798;10.382;2023-03-14T04:59:42;5.70;;;3.33;;
12511;SDS011;6321;53.798;10.382;2023-03-14T05:02:08;7.27;;;3.97;;
12511;SDS011;6321;53.798;10.382;2023-03-14T05:04:34;10.40;;;4.07;;
12511;SDS011;6321;53.798;10.382;2023-03-14T05:07:00;7.40;;;4.30;;
12511;SDS011;6321;53.798;10.382;2023-03-14T05:09:26;7.97;;;4.10;;
12511;SDS011;6321;53.798;10.382;2023-03-14T05:11:52;6.17;;;3.57;;
12511;SDS011;6321;53.798;10.382;2023-03-14T05:14:18;7.37;;;4.00;;
12511;SDS011;6321;53.798;10.382;2023-03-14T05:16:44;20.70;;;4.77;;
12511;SDS011;6321;53.798;10.382;2023-03-14T05:19:10;3.67;;;1.80;;
12511;SDS011;6321;53.798;10.382;2023-03-14T05:21:36;4.53;;;1.70;;
12511;SDS011;6321;53.798;10.382;2023-03-14T05:24:02;2.47;;;1.17;;
12511;SDS011;6321;53.798;10.382;2023-03-14T05:26:28;1.10;;;1.00;;
12511;SDS011;6321;53.798;10.382;2023-03-14T05:28:54;2.13;;;0.90;;
12511;SDS011;6321;53.798;10.382;2023-03-14T05:31:20;2.60;;;1.20;;
12511;SDS011;6321;53.798;10.382;2023-03-14T05:33:46;2.27;;;1.17;;
12511;SDS011;6321;53.798;10.382;2023-03-14T05:36:12;1.80;;;1.27;;
12511;SDS011;6321;53.798;10.382;2023-03-14T05:38:38;1.73;;;1.37;;
12511;SDS011;6321;53.798;10.382;2023-03-14T05:41:04;3.17;;;1.40;;
12511;SDS011;6321;53.798;10.382;2023-03-14T05:43:30;2.10;;;1.10;;
12511;SDS011;6321;53.798;10.382;2023-03-14T05:45:56;1.80;;;1.10;;
12511;SDS011;6321;53.798;10.382;2023-03-14T05:48:22;2.27;;;1.30;;
12511;SDS011;6321;53.798;10.382;2023-03-14T05:50:53;2.70;;;1.30;;
12511;SDS011;6321;53.798;10.382;2023-03-14T05:53:19;3.03;;;1.70;;
12511;SDS011;6321;53.798;10.382;2023-03-14T05:55:45;2.87;;;1.40;;
12511;SDS011;6321;53.798;10.382;2023-03-14T05:58:11;2.60;;;1.40;;
12511;SDS011;6321;53.798;10.382;2023-03-14T06:00:37;1.87;;;1.30;;
12511;SDS011;6321;53.798;10.382;2023-03-14T06:03:03;1.87;;;1.37;;
12511;SDS011;6321;53.798;10.382;2023-03-14T06:05:29;4.10;;;1.90;;
12511;SDS011;6321;53.798;10.382;2023-03-14T06:07:55;4.07;;;1.67;;
12511;SDS011;6321;53.798;10.382;2023-03-14T06:10:21;1.70;;;1.60;;
12511;SDS011;6321;53.798;10.382;2023-03-14T06:12:47;4.73;;;1.80;;
12511;SDS011;6321;53.798;10.382;2023-03-14T06:15:12;3.57;;;2.30;;
12511;SDS011;6321;53.798;10.382;2023-03-14T06:17:38;5.47;;;2.30;;
12511;SDS011;6321;53.798;10.382;2023-03-14T06:20:04;2.03;;;1.80;;
12511;SDS011;6321;53.798;10.382;2023-03-14T06:22:30;3.73;;;2.80;;
12511;SDS011;6321;53.798;10.382;2023-03-14T06:24:56;4.40;;;2.50;;
12511;SDS011;6321;53.798;10.382;2023-03-14T06:27:22;3.23;;;2.33;;
12511;SDS011;6321;53.798;10.382;2023-03-14T06:29:48;3.40;;;2.67;;
12511;SDS011;6321;53.798;10.382;2023-03-14T06:32:14;5.00;;;3.00;;
12511;SDS011;6321;53.798;10.382;2023-03-14T06:34:40;7.40;;;3.13;;
12511;SDS011;6321;53.798;10.382;2023-03-14T06:37:06;6.10;;;3.27;;
12511;SDS011;6321;53.798;10.382;2023-03-14T06:39:32;6.83;;;3.53;;
12511;SDS011;6321;53.798;10.382;2023-03-14T06:41:58;6.43;;;3.67;;
12511;SDS011;6321;53.798;10.382;2023-03-14T06:44:24;8.10;;;4.00;;
12511;SDS011;6321;53.798;10.382;2023-03-14T06:46:50;5.00;;;4.50;;
12511;SDS011;6321;53.798;10.382;2023-03-14T06:49:16;6.57;;;4.53;;
12511;SDS011;6321;53.798;10.382;2023-03-14T06:51:42;9.33;;;5.37;;
12511;SDS011;6321;53.798;10.382;2023-03-14T06:54:08;8.03;;;4.97;;
12511;SDS011;6321;53.798;10.382;2023-03-14T06:56:34;7.77;;;4.73;;
12511;SDS011;6321;53.798;10.382;2023-03-14T06:59:00;10.30;;;5.60;;
12511;SDS011;6321;53.798;10.382;2023-03-14T07:01:27;5.77;;;5.13;;
12511;SDS011;6321;53.798;10.382;2023-03-14T07:03:54;8.63;;;5.27;;
12511;SDS011;6321;53.798;10.382;2023-03-14T07:06:20;7.93;;;5.30;;
12511;SDS011;6321;53.798;10.382;2023-03-14T07:08:46;10.23;;;5.47;;
12511;SDS011;6321;53.798;10.382;2023-03-14T07:11:12;9.17;;;5.80;;
12511;SDS011;6321;53.798;10.382;2023-03-14T07:13:39;11.87;;;6.10;;
12511;SDS011;6321;53.798;10.382;2023-03-14T07:16:06;8.67;;;5.77;;
12511;SDS011;6321;53.798;10.382;2023-03-14T07:18:32;10.60;;;6.27;;
12511;SDS011;6321;53.798;10.382;2023-03-14T07:20:58;8.10;;;5.33;;
12511;SDS011;6321;53.798;10.382;2023-03-14T07:23:24;8.23;;;5.47;;
12511;SDS011;6321;53.798;10.382;2023-03-14T07:25:50;7.60;;;5.00;;
12511;SDS011;6321;53.798;10.382;2023-03-14T07:28:18;8.70;;;5.00;;
12511;SDS011;6321;53.798;10.382;2023-03-14T07:30:45;11.43;;;6.00;;
12511;SDS011;6321;53.798;10.382;2023-03-14T07:33:11;8.00;;;5.03;;
12511;SDS011;6321;53.798;10.382;2023-03-14T07:35:37;8.03;;;4.63;;
12511;SDS011;6321;53.798;10.382;2023-03-14T07:38:03;9.10;;;5.10;;
12511;SDS011;6321;53.798;10.382;2023-03-14T07:40:29;15.03;;;5.10;;
12511;SDS011;6321;53.798;10.382;2023-03-14T07:42:55;9.17;;;5.20;;
12511;SDS011;6321;53.798;10.382;2023-03-14T07:45:22;7.90;;;4.60;;
12511;SDS011;6321;53.798;10.382;2023-03-14T07:47:48;7.33;;;4.33;;
12511;SDS011;6321;53.798;10.382;2023-03-14T07:50:14;10.97;;;4.37;;
12511;SDS011;6321;53.798;10.382;2023-03-14T07:52:40;6.17;;;4.47;;
12511;SDS011;6321;53.798;10.382;2023-03-14T07:55:06;7.70;;;3.77;;
12511;SDS011;6321;53.798;10.382;2023-03-14T07:57:32;4.17;;;3.50;;
12511;SDS011;6321;53.798;10.382;2023-03-14T07:59:58;10.30;;;3.50;;
12511;SDS011;6321;53.798;10.382;2023-03-14T08:02:24;5.33;;;2.77;;
12511;SDS011;6321;53.798;10.382;2023-03-14T08:04:50;4.87;;;2.80;;
12511;SDS011;6321;53.798;10.382;2023-03-14T08:07:16;4.93;;;2.43;;
12511;SDS011;6321;53.798;10.382;2023-03-14T08:09:42;3.23;;;2.03;;
12511;SDS011;6321;53.798;10.382;2023-03-14T08:12:08;7.40;;;2.70;;
12511;SDS011;6321;53.798;10.382;2023-03-14T08:14:34;3.87;;;2.23;;
12511;SDS011;6321;53.798;10.382;2023-03-14T08:17:00;4.27;;;2.23;;
12511;SDS011;6321;53.798;10.382;2023-03-14T08:19:26;6.10;;;2.23;;
12511;SDS011;6321;53.798;10.382;2023-03-14T08:21:51;7.97;;;2.50;;
12511;SDS011;6321;53.798;10.382;2023-03-14T08:24:17;3.87;;;3.07;;
12511;SDS011;6321;53.798;10.382;2023-03-14T08:26:43;7.07;;;2.90;;
12511;SDS011;6321;53.798;10.382;2023-03-14T08:29:09;4.27;;;2.63;;
12511;SDS011;6321;53.798;10.382;2023-03-14T08:31:37;5.83;;;2.93;;
12511;SDS011;6321;53.798;10.382;2023-03-14T08:34:03;6.07;;;3.00;;
12511;SDS011;6321;53.798;10.382;2023-03-14T08:36:30;6.33;;;2.80;;
12511;SDS011;6321;53.798;10.382;2023-03-14T08:38:56;3.90;;;2.43;;
12511;SDS011;6321;53.798;10.382;2023-03-14T08:41:22;6.43;;;2.60;;
12511;SDS011;6321;53.798;10.382;2023-03-14T08:43:48;7.10;;;2.60;;
12511;SDS011;6321;53.798;10.382;2023-03-14T08:46:14;3.37;;;2.07;;
12511;SDS011;6321;53.798;10.382;2023-03-14T08:48:40;4.70;;;2.40;;
12511;SDS011;6321;53.798;10.382;2023-03-14T08:51:07;3.70;;;2.47;;
12511;SDS011;6321;53.798;10.382;2023-03-14T08:53:33;6.27;;;2.50;;
12511;SDS011;6321;53.798;10.382;2023-03-14T08:55:59;4.33;;;1.90;;
12511;SDS011;6321;53.798;10.382;2023-03-14T08:58:25;2.40;;;2.10;;
12511;SDS011;6321;53.798;10.382;2023-03-14T09:00:51;3.43;;;2.47;;
12511;SDS011;6321;53.798;10.382;2023-03-14T09:03:17;4.43;;;2.37;;
12511;SDS011;6321;53.798;10.382;2023-03-14T09:05:43;5.13;;;2.60;;
12511;SDS011;6321;53.798;10.382;2023-03-14T09:08:09;3.23;;;2.13;;
12511;SDS011;6321;53.798;10.382;2023-03-14T09:10:35;6.63;;;3.20;;
12511;SDS011;6321;53.798;10.382;2023-03-14T09:13:01;5.57;;;2.70;;
12511;SDS011;6321;53.798;10.382;2023-03-14T09:15:27;5.07;;;2.30;;
12511;SDS011;6321;53.798;10.382;2023-03-14T09:17:53;6.83;;;2.67;;
12511;SDS011;6321;53.798;10.382;2023-03-14T09:20:19;5.17;;;3.10;;
12511;SDS011;6321;53.798;10.382;2023-03-14T09:22:45;5.67;;;3.13;;
12511;SDS011;6321;53.798;10.382;2023-03-14T09:25:11;6.83;;;3.20;;
12511;SDS011;6321;53.798;10.382;2023-03-14T09:27:37;10.27;;;3.60;;
12511;SDS011;6321;53.798;10.382;2023-03-14T09:30:03;4.77;;;3.20;;
12511;SDS011;6321;53.798;10.382;2023-03-14T09:32:30;12.07;;;4.10;;
12511;SDS011;6321;53.798;10.382;2023-03-14T09:34:59;5.50;;;3.23;;
12511;SDS011;6321;53.798;10.382;2023-03-14T09:37:25;4.57;;;3.13;;
12511;SDS011;6321;53.798;10.382;2023-03-14T09:39:51;8.47;;;3.60;;
12511;SDS011;6321;53.798;10.382;2023-03-14T09:42:17;5.77;;;3.33;;
12511;SDS011;6321;53.798;10.382;2023-03-14T09:44:56;6.87;;;3.50;;
12511;SDS011;6321;53.798;10.382;2023-03-14T09:47:23;8.70;;;4.10;;
12511;SDS011;6321;53.798;10.382;2023-03-14T09:49:50;7.77;;;3.70;;
12511;SDS011;6321;53.798;10.382;2023-03-14T09:52:22;5.93;;;4.13;;
12511;SDS011;6321;53.798;10.382;2023-03-14T09:54:53;8.87;;;4.23;;
12511;SDS011;6321;53.798;10.382;2023-03-14T09:57:21;10.57;;;4.20;;
12511;SDS011;6321;53.798;10.382;2023-03-14T09:59:49;12.27;;;4.07;;
12511;SDS011;6321;53.798;10.382;2023-03-14T10:02:27;13.47;;;4.53;;
12511;SDS011;6321;53.798;10.382;2023-03-14T10:04:54;5.47;;;4.53;;
12511;SDS011;6321;53.798;10.382;2023-03-14T10:07:25;6.50;;;3.20;;
12511;SDS011;6321;53.798;10.382;2023-03-14T10:09:53;2.90;;;2.07;;
12511;SDS011;6321;53.798;10.382;2023-03-14T10:12:19;2.03;;;1.30;;
12511;SDS011;6321;53.798;10.382;2023-03-14T10:14:47;2.43;;;1.43;;
12511;SDS011;6321;53.798;10.382;2023-03-14T10:17:13;2.47;;;2.13;;
12511;SDS011;6321;53.798;10.382;2023-03-14T10:20:42;3.13;;;1.40;;
12511;SDS011;6321;53.798;10.382;2023-03-14T10:22:36;1.90;;;0.90;;
12511;SDS011;6321;53.798;10.382;2023-03-14T10:25:04;0.93;;;0.93;;
12511;SDS011;6321;53.798;10.382;2023-03-14T10:27:31;0.70;;;0.70;;
12511;SDS011;6321;53.798;10.382;2023-03-14T10:30:02;1.20;;;1.10;;
12511;SDS011;6321;53.798;10.382;2023-03-14T10:32:29;1.10;;;1.00;;
12511;SDS011;6321;53.798;10.382;2023-03-14T10:35:08;1.20;;;1.10;;
12511;SDS011;6321;53.798;10.382;2023-03-14T10:37:34;1.30;;;1.10;;
12511;SDS011;6321;53.798;10.382;2023-03-14T10:40:01;1.47;;;0.83;;
12511;SDS011;6321;53.798;10.382;2023-03-14T10:42:34;0.93;;;0.90;;
12511;SDS011;6321;53.798;10.382;2023-03-14T10:45:05;1.37;;;0.93;;
12511;SDS011;6321;53.798;10.382;2023-03-14T10:47:34;1.37;;;1.27;;
12511;SDS011;6321;53.798;10.382;2023-03-14T10:50:18;1.80;;;0.93;;
12511;SDS011;6321;53.798;10.382;2023-03-14T10:52:47;0.70;;;0.70;;
12511;SDS011;6321;53.798;10.382;2023-03-14T10:55:14;3.20;;;1.00;;
12511;SDS011;6321;53.798;10.382;2023-03-14T10:57:40;1.23;;;0.90;;
12511;SDS011;6321;53.798;10.382;2023-03-14T11:00:17;1.47;;;0.80;;
12511;SDS011;6321;53.798;10.382;2023-03-14T11:02:47;0.50;;;0.50;;
12511;SDS011;6321;53.798;10.382;2023-03-14T11:07:44;1.17;;;0.60;;
12511;SDS011;6321;53.798;10.382;2023-03-14T11:10:13;1.87;;;0.70;;
12511;SDS011;6321;53.798;10.382;2023-03-14T11:12:47;0.87;;;0.77;;
12511;SDS011;6321;53.798;10.382;2023-03-14T11:15:16;2.30;;;0.90;;
12511;SDS011;6321;53.798;10.382;2023-03-14T11:20:31;6.60;;;1.30;;
12511;SDS011;6321;53.798;10.382;2023-03-14T11:22:59;2.43;;;1.00;;
12511;SDS011;6321;53.798;10.382;2023-03-14T11:25:37;2.17;;;1.00;;
12511;SDS011;6321;53.798;10.382;2023-03-14T11:28:16;1.40;;;0.70;;
12511;SDS011;6321;53.798;10.382;2023-03-14T11:30:53;1.53;;;1.03;;
12511;SDS011;6321;53.798;10.382;2023-03-14T11:33:21;3.33;;;1.63;;
12511;SDS011;6321;53.798;10.382;2023-03-14T11:36:06;4.10;;;1.20;;
12511;SDS011;6321;53.798;10.382;2023-03-14T11:41:18;6.60;;;1.60;;
12511;SDS011;6321;53.798;10.382;2023-03-14T11:43:51;3.00;;;1.70;;
12511;SDS011;6321;53.798;10.382;2023-03-14T11:46:23;3.27;;;1.50;;
12511;SDS011;6321;53.798;10.382;2023-03-14T11:51:24;4.20;;;2.07;;
12511;SDS011;6321;53.798;10.382;2023-03-14T11:57:09;2.80;;;1.50;;
12511;SDS011;6321;53.798;10.382;2023-03-14T11:59:18;1.20;;;1.10;;
12511;SDS011;6321;53.798;10.382;2023-03-14T12:01:51;3.57;;;1.37;;
12511;SDS011;6321;53.798;10.382;2023-03-14T12:04:31;5.83;;;1.60;;
12511;SDS011;6321;53.798;10.382;2023-03-14T12:07:01;4.23;;;1.47;;
12511;SDS011;6321;53.798;10.382;2023-03-14T12:09:28;4.53;;;1.53;;
12511;SDS011;6321;53.798;10.382;2023-03-14T12:11:56;2.93;;;1.50;;
12511;SDS011;6321;53.798;10.382;2023-03-14T12:14:24;3.57;;;1.70;;
12511;SDS011;6321;53.798;10.382;2023-03-14T12:19:28;5.10;;;1.70;;
12511;SDS011;6321;53.798;10.382;2023-03-14T12:22:01;3.00;;;1.67;;
12511;SDS011;6321;53.798;10.382;2023-03-14T12:24:31;6.57;;;1.77;;
12511;SDS011;6321;53.798;10.382;2023-03-14T12:27:00;4.40;;;1.50;;
12511;SDS011;6321;53.798;10.382;2023-03-14T12:29:26;3.37;;;1.30;;
12511;SDS011;6321;53.798;10.382;2023-03-14T12:32:06;7.60;;;2.43;;
12511;SDS011;6321;53.798;10.382;2023-03-14T12:34:39;3.23;;;1.30;;
12511;SDS011;6321;53.798;10.382;2023-03-14T12:42:14;4.70;;;1.67;;
12511;SDS011;6321;53.798;10.382;2023-03-14T12:44:44;7.30;;;1.47;;
12511;SDS011;6321;53.798;10.382;2023-03-14T12:49:42;6.83;;;1.70;;
12511;SDS011;6321;53.798;10.382;2023-03-14T12:52:15;6.13;;;1.77;;
12511;SDS011;6321;53.798;10.382;2023-03-14T12:54:46;5.70;;;1.40;;
12511;SDS011;6321;53.798;10.382;2023-03-14T12:57:20;2.13;;;1.27;;
12511;SDS011;6321;53.798;10.382;2023-03-14T12:59:51;9.23;;;2.00;;
12511;SDS011;6321;53.798;10.382;2023-03-14T13:02:20;5.03;;;1.40;;
12511;SDS011;6321;53.798;10.382;2023-03-14T13:04:49;5.43;;;1.57;;
12511;SDS011;6321;53.798;10.382;2023-03-14T13:08:19;8.27;;;2.30;;
12511;SDS011;6321;53.798;10.382;2023-03-14T13:12:48;5.93;;;1.80;;
12511;SDS011;6321;53.798;10.382;2023-03-14T13:15:17;5.63;;;1.77;;
12511;SDS011;6321;53.798;10.382;2023-03-14T13:17:45;11.60;;;2.50;;
12511;SDS011;6321;53.798;10.382;2023-03-14T13:20:12;10.27;;;1.83;;
12511;SDS011;6321;53.798;10.382;2023-03-14T13:22:45;1.63;;;1.27;;
12511;SDS011;6321;53.798;10.382;2023-03-14T13:25:11;5.90;;;1.17;;
12511;SDS011;6321;53.798;10.382;2023-03-14T13:27:37;7.33;;;2.00;;
12511;SDS011;6321;53.798;10.382;2023-03-14T13:32:39;7.63;;;3.20;;
12511;SDS011;6321;53.798;10.382;2023-03-14T13:35:26;3.87;;;1.87;;
12511;SDS011;6321;53.798;10.382;2023-03-14T13:37:59;8.13;;;1.73;;
12511;SDS011;6321;53.798;10.382;2023-03-14T13:40:30;9.17;;;2.10;;
12511;SDS011;6321;53.798;10.382;2023-03-14T13:43:30;8.37;;;1.43;;
12511;SDS011;6321;53.798;10.382;2023-03-14T13:45:49;6.70;;;2.17;;
12511;SDS011;6321;53.798;10.382;2023-03-14T13:48:16;11.50;;;2.20;;
12511;SDS011;6321;53.798;10.382;2023-03-14T13:50:50;10.73;;;2.80;;
12511;SDS011;6321;53.798;10.382;2023-03-14T13:53:17;5.83;;;1.70;;
12511;SDS011;6321;53.798;10.382;2023-03-14T13:55:43;6.90;;;2.20;;
12511;SDS011;6321;53.798;10.382;2023-03-14T13:58:11;6.47;;;1.63;;
12511;SDS011;6321;53.798;10.382;2023-03-14T14:00:39;9.10;;;2.00;;
12511;SDS011;6321;53.798;10.382;2023-03-14T14:03:08;9.53;;;2.60;;
12511;SDS011;6321;53.798;10.382;2023-03-14T14:05:36;4.37;;;1.37;;
12511;SDS011;6321;53.798;10.382;2023-03-14T14:08:05;3.53;;;1.20;;
12511;SDS011;6321;53.798;10.382;2023-03-14T14:10:36;4.97;;;1.23;;
12511;SDS011;6321;53.798;10.382;2023-03-14T14:13:03;1.70;;;0.93;;
12511;SDS011;6321;53.798;10.382;2023-03-14T14:15:31;8.97;;;2.23;;
12511;SDS011;6321;53.798;10.382;2023-03-14T14:17:58;5.53;;;1.53;;
12511;SDS011;6321;53.798;10.382;2023-03-14T14:20:32;5.13;;;1.90;;
12511;SDS011;6321;53.798;10.382;2023-03-14T14:23:03;5.70;;;1.73;;
12511;SDS011;6321;53.798;10.382;2023-03-14T14:25:29;4.03;;;1.27;;
12511;SDS011;6321;53.798;10.382;2023-03-14T14:27:56;5.63;;;1.13;;
12511;SDS011;6321;53.798;10.382;2023-03-14T14:30:32;2.97;;;1.37;;
12511;SDS011;6321;53.798;10.382;2023-03-14T14:33:12;6.30;;;1.90;;
12511;SDS011;6321;53.798;10.382;2023-03-14T14:35:42;7.53;;;1.40;;
12511;SDS011;6321;53.798;10.382;2023-03-14T14:38:11;4.77;;;1.67;;
12511;SDS011;6321;53.798;10.382;2023-03-14T14:40:43;6.10;;;1.53;;
12511;SDS011;6321;53.798;10.382;2023-03-14T14:43:10;5.70;;;1.43;;
12511;SDS011;6321;53.798;10.382;2023-03-14T14:45:41;1.93;;;1.17;;
12511;SDS011;6321;53.798;10.382;2023-03-14T14:48:11;4.93;;;1.40;;
12511;SDS011;6321;53.798;10.382;2023-03-14T14:50:39;5.43;;;1.10;;
12511;SDS011;6321;53.798;10.382;2023-03-14T14:53:21;3.47;;;1.53;;
12511;SDS011;6321;53.798;10.382;2023-03-14T14:55:51;1.83;;;1.13;;
12511;SDS011;6321;53.798;10.382;2023-03-14T14:58:19;5.27;;;1.83;;
12511;SDS011;6321;53.798;10.382;2023-03-14T15:00:52;6.57;;;1.40;;
12511;SDS011;6321;53.798;10.382;2023-03-14T15:03:18;5.53;;;1.40;;
12511;SDS011;6321;53.798;10.382;2023-03-14T15:05:44;4.10;;;1.27;;
12511;SDS011;6321;53.798;10.382;2023-03-14T15:08:10;3.27;;;1.00;;
12511;SDS011;6321;53.798;10.382;2023-03-14T15:10:36;3.50;;;1.10;;
12511;SDS011;6321;53.798;10.382;2023-03-14T15:13:03;2.23;;;0.87;;
12511;SDS011;6321;53.798;10.382;2023-03-14T15:15:28;3.90;;;0.83;;
12511;SDS011;6321;53.798;10.382;2023-03-14T15:17:54;4.83;;;1.40;;
12511;SDS011;6321;53.798;10.382;2023-03-14T15:20:21;2.13;;;1.10;;
12511;SDS011;6321;53.798;10.382;2023-03-14T15:22:48;6.67;;;1.30;;
12511;SDS011;6321;53.798;10.382;2023-03-14T15:25:14;4.50;;;1.20;;
12511;SDS011;6321;53.798;10.382;2023-03-14T15:27:40;3.10;;;0.93;;
12511;SDS011;6321;53.798;10.382;2023-03-14T15:30:14;1.67;;;0.73;;